Disclaimer

Please do not use the information listed here in-flight or in-navigation, as they are not provided to us by the airports but are provided by volunteers, so they might be outdated.

Search


Regions


Airport information page

Radio informations:
SAN JOSE TWR - 118.9 MHz
Automatic Terminal Information Service (ATIS) - 127.6 MHz
SAN JOSE APP - 120.9 MHz

Airport informations:
Latitude: 23° 09' 06.66" N
Longitude: 109° 43' 15.76" W
Elevation: 374 feet - 114 meters
Operating hours: Remarks
Operating agency: Civil government, landing fees and diplomatic clearance may be required
Timezone: UTC-7(-6DT) - First Sunday in April to the last Saturday in October
Fuel: Jet A, without icing inhibitor.

Runway information:
16/34 - 9843 x 148 feet< - >3000 x 45 meters

Recent METARs:
MMSD 131845Z 34014KT 12SM SKC 28/07 A3000
MMSD 131845Z 34014KT 12SM SKC 28/07 A3000
MMSD 131940Z 35015KT 12SM SKC 28/05 A2997

Airport on the map: